Portada
METAR-TAF:

METAR-TAF

Aeropuertos :

Cascaes, Portugal

latitud: 38-43-32N, longitud: 009-21-19W, altitud: 99 m

Observación

El informe se hizo hace 7 horas y 28 minutos, a las 20:00 UTC
Viento 21 kt del norte
Temperatura 18°C
Humedad 77%
Presión 1015 hPa
Visibilidad 10 km o más
Escasas nubes a una altura de 1500 ft

METAR: LPCS 292000Z 36021KT 9999 FEW015 18/14 Q1015

Hora: 04:28 (03:28 UTC)

Pronóstico

El informe se hizo hace 13 horas y 28 minutos, a las 14:00 UTC
Pronóstico válido del 29 a las 15 UTC al 29 a las 24 UTC
Viento 20 kt del norte
Visibilidad 10 km o más
Escasas nubes a una altura de 2000 ft
Temporalmente
del 29 a las 15 UTC al 29 a las 22 UTC
Viento 23 kt del norte con ráfagas de 35 kt
Evolucionando progresivamente
del 29 a las 22 UTC al 29 a las 24 UTC
Viento 15 kt del norte
Nubes dispersas a una altura de 1200 ft

TAF: LPCS 291400Z 2915/2924 35020KT 9999 FEW020 TEMPO 2915/2922 35023G35KT BECMG 2922/2924 35015KT SCT012

Observaciones y pronósticos meteorológicos de más de 4000 aeropuertos (mensajes METAR y TAF).

Los puntos amarillos y rojos representan las estaciones disponibles.

Ponga el ratón en el punto deseado para ver el nombre de la estación.

Haga clic para ver las observaciones y los pronósticos meteorológicos.

Para cambiar el mapa : haga clic en los botones verdes con una cruz de color negro para hacer un zoom, en el botón verde con un guión para alejar o en las flechas verdes para mapas adyacentes.


METAR-TAF: